createdAt,value
2022-11-10T00:01:16.372Z,99027.94
2022-11-10T00:04:02.885Z,99030.80
2022-11-10T00:06:49.660Z,99032.96
2022-11-10T00:09:36.171Z,99036.95
2022-11-10T00:12:23.061Z,99036.58
2022-11-10T00:15:29.600Z,99033.94
2022-11-10T00:18:16.192Z,99036.86
2022-11-10T00:21:07.163Z,99037.31
2022-11-10T00:23:53.624Z,99036.70
2022-11-10T00:26:39.900Z,99036.08
2022-11-10T00:29:26.438Z,99038.38
2022-11-10T00:32:13.003Z,99036.41
2022-11-10T00:34:59.396Z,99036.53
2022-11-10T00:37:46.137Z,99035.14
2022-11-10T00:40:32.422Z,99032.25
2022-11-10T00:43:23.815Z,99034.13
2022-11-10T00:46:13.515Z,99035.37
2022-11-10T00:48:59.854Z,99035.81
2022-11-10T00:51:46.277Z,99035.85
2022-11-10T00:54:32.799Z,99034.14
2022-11-10T00:57:19.560Z,99029.17
2022-11-10T01:00:06.507Z,99027.02
2022-11-10T01:02:53.190Z,99030.65
2022-11-10T01:05:39.883Z,99031.14
2022-11-10T01:08:26.399Z,99036.56
2022-11-10T01:11:15.199Z,99042.41
2022-11-10T01:14:01.551Z,99038.88
2022-11-10T01:16:47.663Z,99039.95
2022-11-10T01:19:34.200Z,99038.85
2022-11-10T01:22:20.858Z,99034.54
2022-11-10T01:25:08.117Z,99034.17
2022-11-10T01:27:54.269Z,99036.23
2022-11-10T01:30:40.736Z,99030.56
2022-11-10T01:33:27.382Z,99036.71
2022-11-10T01:36:14.104Z,99040.56
2022-11-10T01:39:00.935Z,99041.30
2022-11-10T01:41:47.340Z,99047.03
2022-11-10T01:44:35.096Z,99049.09
2022-11-10T01:47:21.180Z,99048.88
2022-11-10T01:50:07.792Z,99052.82
2022-11-10T01:52:57.925Z,99053.27
2022-11-10T01:55:45.104Z,99054.08
2022-11-10T01:58:34.581Z,99056.17
2022-11-10T02:01:21.221Z,99056.10
2022-11-10T02:04:11.508Z,99054.70
2022-11-10T02:06:58.714Z,99056.83
2022-11-10T02:09:45.492Z,99060.84
2022-11-10T02:12:38.236Z,99058.71
2022-11-10T02:15:24.614Z,99062.02
2022-11-10T02:18:10.941Z,99063.80
2022-11-10T02:20:57.293Z,99063.91
2022-11-10T02:23:46.728Z,99076.45
2022-11-10T02:26:33.156Z,99087.06
2022-11-10T02:29:20.368Z,99090.51
2022-11-10T02:32:06.676Z,99086.90
2022-11-10T02:34:52.810Z,99092.96
2022-11-10T02:37:39.331Z,99094.02
2022-11-10T02:40:26.058Z,99098.66
2022-11-10T02:43:14.016Z,99102.84
2022-11-10T02:46:00.490Z,99107.52
2022-11-10T02:48:47.234Z,99107.32
2022-11-10T02:51:33.545Z,99106.69
2022-11-10T02:54:20.113Z,99109.33
2022-11-10T02:57:06.505Z,99103.95
2022-11-10T02:59:53.034Z,99106.23
2022-11-10T03:02:39.652Z,99108.34
2022-11-10T03:05:26.103Z,99117.52
2022-11-10T03:08:12.513Z,99122.89
2022-11-10T03:10:59.300Z,99120.30
2022-11-10T03:14:00.826Z,99120.63
2022-11-10T03:16:47.618Z,99118.29
2022-11-10T03:19:34.167Z,99114.61
2022-11-10T03:22:20.622Z,99118.98
2022-11-10T03:25:08.063Z,99123.65
2022-11-10T03:27:54.551Z,99118.65
2022-11-10T03:30:41.459Z,99135.91
2022-11-10T03:33:27.635Z,99133.90
2022-11-10T03:36:14.298Z,99138.61
2022-11-10T03:39:00.639Z,99141.20
2022-11-10T03:41:47.144Z,99144.73
2022-11-10T03:44:33.469Z,99142.66
2022-11-10T03:47:19.889Z,99138.98
2022-11-10T03:50:07.653Z,99136.53
2022-11-10T03:52:53.856Z,99140.77
2022-11-10T03:55:40.054Z,99148.29
2022-11-10T03:58:26.597Z,99154.67
2022-11-10T04:01:13.077Z,99153.31
2022-11-10T04:03:59.668Z,99154.84
2022-11-10T04:07:05.029Z,99154.59
2022-11-10T04:09:51.536Z,99150.48
2022-11-10T04:12:56.689Z,99150.60
2022-11-10T04:15:43.259Z,99157.58
2022-11-10T04:18:29.800Z,99161.10
2022-11-10T04:21:16.414Z,99158.72
2022-11-10T04:24:03.457Z,99160.73
2022-11-10T04:26:50.404Z,99161.55
2022-11-10T04:29:36.883Z,99159.83
2022-11-10T04:32:23.397Z,99164.20
2022-11-10T04:35:09.809Z,99165.05
2022-11-10T04:37:56.239Z,99164.44
2022-11-10T04:40:42.589Z,99169.05
2022-11-10T04:43:29.353Z,99171.09
2022-11-10T04:46:22.676Z,99174.69
2022-11-10T04:49:10.199Z,99177.48
2022-11-10T04:51:56.797Z,99176.48
2022-11-10T04:54:43.384Z,99178.52
2022-11-10T04:57:29.905Z,99177.54
2022-11-10T05:00:16.646Z,99180.47
2022-11-10T05:03:05.381Z,99178.10
2022-11-10T05:05:52.212Z,99191.61
2022-11-10T05:08:39.389Z,99180.40
2022-11-10T05:11:25.825Z,99185.89
2022-11-10T05:14:12.336Z,99184.16
2022-11-10T05:16:58.667Z,99184.38
2022-11-10T05:19:47.285Z,99189.79
2022-11-10T05:22:33.727Z,99185.77
2022-11-10T05:25:20.267Z,99193.29
2022-11-10T05:28:08.073Z,99201.36
2022-11-10T05:30:54.340Z,99204.00
2022-11-10T05:33:40.942Z,99211.39
2022-11-10T05:36:27.524Z,99218.31
2022-11-10T05:39:14.039Z,99218.36
2022-11-10T05:42:00.428Z,99221.47
2022-11-10T05:44:46.642Z,99225.46
2022-11-10T05:47:36.594Z,99222.27
2022-11-10T05:50:23.372Z,99230.95
2022-11-10T05:53:09.926Z,99244.36
2022-11-10T05:55:56.392Z,99247.35
2022-11-10T05:58:42.910Z,99254.45
2022-11-10T06:01:29.541Z,99259.61
2022-11-10T06:04:15.947Z,99263.13
2022-11-10T06:07:02.769Z,99268.83
2022-11-10T06:09:49.206Z,99276.17
2022-11-10T06:12:35.926Z,99279.91
2022-11-10T06:15:22.799Z,99277.81
2022-11-10T06:18:09.476Z,99287.17
2022-11-10T06:20:55.541Z,99288.78
2022-11-10T06:23:41.996Z,99290.05
2022-11-10T06:26:28.466Z,99285.50
2022-11-10T06:29:14.828Z,99291.16
2022-11-10T06:32:01.569Z,99297.44
2022-11-10T06:34:49.143Z,99295.23
2022-11-10T06:37:35.855Z,99304.73
2022-11-10T06:40:22.854Z,99303.30
2022-11-10T06:43:09.675Z,99310.11
2022-11-10T06:45:56.914Z,99312.55
2022-11-10T06:48:43.181Z,99319.63
2022-11-10T06:51:29.850Z,99323.94
2022-11-10T06:54:16.245Z,99324.55
2022-11-10T06:57:02.774Z,99335.26
2022-11-10T06:59:49.357Z,99341.95
2022-11-10T07:02:35.712Z,99346.30
2022-11-10T07:05:21.893Z,99349.70
2022-11-10T07:08:11.042Z,99354.05
2022-11-10T07:10:57.457Z,99359.23
2022-11-10T07:13:43.801Z,99367.60
2022-11-10T07:16:30.522Z,99365.61
2022-11-10T07:19:16.630Z,99377.84
2022-11-10T07:22:07.990Z,99379.30
2022-11-10T07:24:57.694Z,99377.45
2022-11-10T07:27:44.281Z,99382.15
2022-11-10T07:30:33.140Z,99385.80
2022-11-10T07:33:19.839Z,99389.12
2022-11-10T07:36:07.361Z,99399.02
2022-11-10T07:38:53.922Z,99389.23
2022-11-10T07:41:40.281Z,99397.10
2022-11-10T07:44:27.765Z,99395.02
2022-11-10T07:47:14.152Z,99400.08
2022-11-10T07:50:00.564Z,99405.38
2022-11-10T07:52:46.920Z,99407.27
2022-11-10T07:55:34.267Z,99408.14
2022-11-10T07:58:20.723Z,99411.36
2022-11-10T08:01:07.255Z,99412.54
2022-11-10T08:03:53.660Z,99422.31
2022-11-10T08:06:40.240Z,99426.55
2022-11-10T08:09:26.752Z,99430.83
2022-11-10T08:12:13.304Z,99429.52
2022-11-10T08:14:59.524Z,99437.25
2022-11-10T08:17:46.179Z,99443.86
2022-11-10T08:20:33.033Z,99439.34
2022-11-10T08:23:19.301Z,99442.54
2022-11-10T08:26:05.737Z,99455.89
2022-11-10T08:28:52.244Z,99459.19
2022-11-10T08:31:39.008Z,99459.35
2022-11-10T08:34:25.425Z,99469.24
2022-11-10T08:37:11.995Z,99470.58
2022-11-10T08:39:58.325Z,99476.38
2022-11-10T08:42:44.820Z,99482.91
2022-11-10T08:45:31.022Z,99489.39
2022-11-10T08:48:19.710Z,99495.64
2022-11-10T08:51:05.914Z,99494.98
2022-11-10T08:53:52.441Z,99499.02
2022-11-10T08:56:38.862Z,99507.00
2022-11-10T08:59:25.525Z,99508.43
2022-11-10T09:02:11.979Z,99513.78
2022-11-10T09:04:58.584Z,99514.53
2022-11-10T09:07:46.412Z,99514.09
2022-11-10T09:10:36.059Z,99520.98
2022-11-10T09:13:29.109Z,99522.75
2022-11-10T09:16:16.926Z,99528.80
2022-11-10T09:19:03.461Z,99535.23
2022-11-10T09:21:49.812Z,99535.95
2022-11-10T09:24:36.575Z,99542.21
2022-11-10T09:27:22.884Z,99549.52
2022-11-10T09:30:14.535Z,99552.35
2022-11-10T09:33:03.692Z,99553.39
2022-11-10T09:35:50.900Z,99551.05
2022-11-10T09:38:37.048Z,99559.54
2022-11-10T09:41:23.547Z,99559.80
2022-11-10T09:44:19.037Z,99564.09
2022-11-10T09:47:56.211Z,99564.49
2022-11-10T09:50:47.725Z,99563.77
2022-11-10T09:53:41.710Z,99565.27
2022-11-10T09:56:33.243Z,99567.65
2022-11-10T09:59:26.182Z,99572.46
2022-11-10T10:02:33.505Z,99574.81
2022-11-10T10:05:39.081Z,99576.80
2022-11-10T10:08:55.820Z,99578.77
2022-11-10T10:11:54.026Z,99585.47
2022-11-10T10:15:03.938Z,99587.91
2022-11-10T10:18:16.620Z,99588.16
2022-11-10T10:21:17.845Z,99595.62
2022-11-10T10:24:11.448Z,99594.05
2022-11-10T10:27:04.847Z,99601.38
2022-11-10T10:29:52.061Z,99601.17
2022-11-10T10:32:38.183Z,99601.75
2022-11-10T10:35:25.011Z,99607.30
2022-11-10T10:38:16.812Z,99604.25
2022-11-10T10:41:11.661Z,99605.41
2022-11-10T10:44:00.537Z,99613.18
2022-11-10T10:47:07.256Z,99614.05
2022-11-10T10:49:54.736Z,99607.45
2022-11-10T10:52:41.133Z,99606.80
2022-11-10T10:55:28.482Z,99607.66
2022-11-10T10:58:27.365Z,99611.69
2022-11-10T11:01:16.714Z,99606.02
2022-11-10T11:04:26.903Z,99610.34
2022-11-10T11:07:24.342Z,99608.73
2022-11-10T11:10:21.873Z,99612.55
2022-11-10T11:13:20.372Z,99617.80
2022-11-10T11:16:08.906Z,99620.71
2022-11-10T11:18:55.446Z,99625.77
2022-11-10T11:22:05.286Z,99624.70
2022-11-10T11:24:59.445Z,99622.63
2022-11-10T11:27:54.817Z,99626.99
2022-11-10T11:30:50.673Z,99633.01
2022-11-10T11:33:47.525Z,99633.33
2022-11-10T11:36:39.867Z,99636.00
2022-11-10T11:39:32.647Z,99636.41
2022-11-10T11:42:39.565Z,99635.76
2022-11-10T11:45:38.293Z,99636.62
2022-11-10T11:48:30.425Z,99638.71
2022-11-10T11:51:28.426Z,99638.34
2022-11-10T11:54:51.729Z,99639.24
2022-11-10T11:58:03.030Z,99640.56
2022-11-10T12:01:31.492Z,99640.05
2022-11-10T12:04:29.216Z,99641.58
2022-11-10T12:07:22.468Z,99645.11
2022-11-10T12:10:23.356Z,99653.48
2022-11-10T12:13:28.278Z,99648.52
2022-11-10T12:16:23.278Z,99648.96
2022-11-10T12:19:31.082Z,99656.58
2022-11-10T12:22:32.364Z,99661.85
2022-11-10T12:25:49.058Z,99664.36
2022-11-10T12:28:43.326Z,99672.98
2022-11-10T12:31:32.745Z,99676.36
2022-11-10T12:34:30.859Z,99685.16
2022-11-10T12:37:28.700Z,99686.39
2022-11-10T12:40:18.681Z,99681.20
2022-11-10T12:43:12.033Z,99680.63
2022-11-10T12:46:01.549Z,99685.98
2022-11-10T12:49:00.916Z,99693.21
2022-11-10T12:52:00.370Z,99703.43
2022-11-10T12:54:47.281Z,99705.00
2022-11-10T12:57:33.844Z,99709.39
2022-11-10T13:00:28.001Z,99707.83
2022-11-10T13:03:26.880Z,99708.98
2022-11-10T13:06:35.713Z,99712.98
2022-11-10T13:09:23.647Z,99711.86
2022-11-10T13:12:18.814Z,99715.83
2022-11-10T13:15:37.209Z,99722.25
2022-11-10T13:18:26.268Z,99723.98
2022-11-10T13:21:12.293Z,99724.55
2022-11-10T13:24:19.468Z,99731.95
2022-11-10T13:27:13.955Z,99735.51
2022-11-10T13:30:00.371Z,99739.93
2022-11-10T13:32:46.694Z,99741.05
2022-11-10T13:35:39.035Z,99739.16
2022-11-10T13:38:41.266Z,99741.89
2022-11-10T13:41:27.938Z,99754.64
2022-11-10T13:44:28.672Z,99755.52
2022-11-10T13:47:35.157Z,99759.48
2022-11-10T13:50:48.083Z,99768.06
2022-11-10T13:53:41.323Z,99767.41
2022-11-10T13:56:49.052Z,99770.30
2022-11-10T13:59:46.174Z,99768.90
2022-11-10T14:02:39.064Z,99772.13
2022-11-10T14:05:28.323Z,99776.08
2022-11-10T14:08:18.522Z,99780.35
2022-11-10T14:11:12.961Z,99781.52
2022-11-10T14:14:04.932Z,99785.10
2022-11-10T14:16:53.221Z,99796.29
2022-11-10T14:19:43.236Z,99803.23
2022-11-10T14:22:42.844Z,99804.98
2022-11-10T14:25:40.201Z,99811.17
2022-11-10T14:28:29.247Z,99811.06
2022-11-10T14:31:21.453Z,99814.97
2022-11-10T14:34:13.604Z,99820.35
2022-11-10T14:37:01.821Z,99825.86
2022-11-10T14:39:49.170Z,99830.40
2022-11-10T14:42:35.578Z,99834.06
2022-11-10T14:45:25.000Z,99833.83
2022-11-10T14:48:19.018Z,99833.21
2022-11-10T14:51:13.234Z,99837.63
2022-11-10T14:54:00.237Z,99843.39
2022-11-10T14:56:47.587Z,99845.34
2022-11-10T14:59:33.681Z,99851.47
2022-11-10T15:02:20.130Z,99852.71
2022-11-10T15:05:12.691Z,99856.01
2022-11-10T15:07:59.233Z,99865.39
2022-11-10T15:10:49.473Z,99866.30
2022-11-10T15:13:39.000Z,99877.09
2022-11-10T15:16:38.558Z,99880.47
2022-11-10T15:19:29.225Z,99887.16
2022-11-10T15:22:21.469Z,99888.45
2022-11-10T15:25:13.760Z,99893.34
2022-11-10T15:28:12.291Z,99896.20
2022-11-10T15:31:01.739Z,99899.97
2022-11-10T15:33:51.492Z,99900.35
2022-11-10T15:36:41.217Z,99904.11
2022-11-10T15:39:28.167Z,99905.21
2022-11-10T15:42:17.924Z,99910.75
2022-11-10T15:45:05.067Z,99914.55
2022-11-10T15:47:51.669Z,99915.25
2022-11-10T15:50:38.715Z,99917.94
2022-11-10T15:53:31.591Z,99923.60
2022-11-10T15:56:20.806Z,99928.02
2022-11-10T15:59:07.126Z,99936.54
2022-11-10T16:01:53.511Z,99940.73
2022-11-10T16:04:40.010Z,99947.77
2022-11-10T16:07:26.725Z,99950.63
2022-11-10T16:10:12.977Z,99958.98
2022-11-10T16:12:59.625Z,99967.59
2022-11-10T16:15:45.983Z,99976.42
2022-11-10T16:18:32.855Z,99980.19
2022-11-10T16:21:24.214Z,99988.34
2022-11-10T16:24:10.452Z,99993.90
2022-11-10T16:26:56.960Z,100002.02
2022-11-10T16:29:43.418Z,100011.65
2022-11-10T16:32:29.898Z,100014.09
2022-11-10T16:35:16.261Z,100023.00
2022-11-10T16:38:02.721Z,100028.80
2022-11-10T16:40:59.372Z,100033.78
2022-11-10T16:43:45.864Z,100036.52
2022-11-10T16:46:34.875Z,100042.91
2022-11-10T16:49:31.710Z,100043.36
2022-11-10T16:52:18.965Z,100045.30
2022-11-10T16:55:05.842Z,100047.86
2022-11-10T16:57:52.228Z,100056.51
2022-11-10T17:00:39.932Z,100057.57
2022-11-10T17:03:31.914Z,100056.69
2022-11-10T17:06:19.058Z,100055.77
2022-11-10T17:09:17.220Z,100055.86
2022-11-10T17:12:03.723Z,100059.92
2022-11-10T17:14:49.944Z,100061.58
2022-11-10T17:17:36.936Z,100066.05
2022-11-10T17:20:30.631Z,100062.54
2022-11-10T17:23:22.750Z,100059.77
2022-11-10T17:26:11.591Z,100060.50
2022-11-10T17:28:58.179Z,100062.65
2022-11-10T17:31:45.454Z,100063.38
2022-11-10T17:34:31.685Z,100062.27
2022-11-10T17:37:18.872Z,100068.16
2022-11-10T17:40:20.144Z,100071.42
2022-11-10T17:43:10.223Z,100073.89
2022-11-10T17:45:56.859Z,100075.30
2022-11-10T17:48:43.607Z,100077.23
2022-11-10T17:51:32.258Z,100078.88
2022-11-10T17:54:18.598Z,100079.52
2022-11-10T17:57:06.215Z,100076.80
2022-11-10T17:59:52.697Z,100082.98
2022-11-10T18:02:38.957Z,100085.17
2022-11-10T18:05:25.380Z,100089.08
2022-11-10T18:08:13.869Z,100085.27
2022-11-10T18:11:00.959Z,100089.55
2022-11-10T18:13:47.695Z,100091.28
2022-11-10T18:16:34.271Z,100088.36
2022-11-10T18:19:20.542Z,100091.00
2022-11-10T18:22:07.562Z,100091.55
2022-11-10T18:24:53.933Z,100092.10
2022-11-10T18:27:40.495Z,100091.55
2022-11-10T18:30:30.962Z,100087.45
2022-11-10T18:33:20.922Z,100088.96
2022-11-10T18:36:08.839Z,100090.45
2022-11-10T18:38:55.154Z,100089.67
2022-11-10T18:41:50.716Z,100090.80
2022-11-10T18:44:37.544Z,100092.64
2022-11-10T18:47:24.007Z,100098.41
2022-11-10T18:50:10.861Z,100105.04
2022-11-10T18:52:57.586Z,100107.27
2022-11-10T18:55:53.598Z,100109.73
2022-11-10T18:58:40.496Z,100114.84
2022-11-10T19:01:27.532Z,100115.71
2022-11-10T19:04:14.323Z,100113.60
2022-11-10T19:07:00.656Z,100110.77
2022-11-10T19:09:47.255Z,100122.13
2022-11-10T19:12:34.528Z,100127.20
2022-11-10T19:15:20.684Z,100128.81
2022-11-10T19:18:07.353Z,100136.01
2022-11-10T19:20:53.765Z,100143.70
2022-11-10T19:23:40.687Z,100141.41
2022-11-10T19:26:27.309Z,100148.20
2022-11-10T19:29:15.208Z,100150.92
2022-11-10T19:32:01.729Z,100163.20
2022-11-10T19:34:48.039Z,100168.16
2022-11-10T19:37:35.068Z,100174.69
2022-11-10T19:40:22.390Z,100187.62
2022-11-10T19:43:08.612Z,100191.43
2022-11-10T19:45:55.067Z,100183.41
2022-11-10T19:48:42.012Z,100174.49
2022-11-10T19:51:28.654Z,100172.48
2022-11-10T19:54:15.361Z,100174.58
2022-11-10T19:57:01.809Z,100172.06
2022-11-10T19:59:48.032Z,100184.30
2022-11-10T20:02:34.378Z,100182.65
2022-11-10T20:05:21.943Z,100185.71
2022-11-10T20:08:11.783Z,100187.90
2022-11-10T20:11:05.696Z,100184.26
2022-11-10T20:13:55.320Z,100187.52
2022-11-10T20:16:42.080Z,100188.18
2022-11-10T20:19:28.214Z,100182.02
2022-11-10T20:22:14.397Z,100179.73
2022-11-10T20:25:01.111Z,100181.88
2022-11-10T20:27:47.631Z,100184.05
2022-11-10T20:30:35.925Z,100184.73
2022-11-10T20:33:22.500Z,100187.38
2022-11-10T20:36:19.906Z,100185.92
2022-11-10T20:39:06.897Z,100189.25
2022-11-10T20:41:53.306Z,100197.30
2022-11-10T20:44:40.377Z,100195.05
2022-11-10T20:47:29.761Z,100195.52
2022-11-10T20:50:21.716Z,100198.52
2022-11-10T20:53:10.766Z,100198.13
2022-11-10T20:55:58.826Z,100204.05
2022-11-10T20:58:45.282Z,100195.58
2022-11-10T21:01:33.494Z,100200.08
2022-11-10T21:04:20.379Z,100200.05
2022-11-10T21:07:06.753Z,100198.94
2022-11-10T21:09:53.241Z,100197.38
2022-11-10T21:12:52.041Z,100196.94
2022-11-10T21:15:39.767Z,100194.66
2022-11-10T21:18:34.710Z,100195.69
2022-11-10T21:21:23.345Z,100192.55
2022-11-10T21:24:10.148Z,100197.48
2022-11-10T21:26:57.247Z,100197.75
2022-11-10T21:29:43.483Z,100198.85
2022-11-10T21:32:29.804Z,100196.66
2022-11-10T21:35:17.103Z,100195.32
2022-11-10T21:38:04.624Z,100200.29
2022-11-10T21:40:51.184Z,100201.36
2022-11-10T21:43:41.031Z,100200.62
2022-11-10T21:46:27.597Z,100207.94
2022-11-10T21:49:13.917Z,100208.45
2022-11-10T21:52:00.354Z,100213.33
2022-11-10T21:54:46.691Z,100220.64
2022-11-10T21:57:33.294Z,100215.23
2022-11-10T22:00:19.927Z,100215.91
2022-11-10T22:03:06.109Z,100209.45
2022-11-10T22:05:52.584Z,100209.73
2022-11-10T22:08:39.946Z,100215.46
2022-11-10T22:11:44.823Z,100217.38
2022-11-10T22:14:49.956Z,100216.05
2022-11-10T22:17:55.047Z,100213.01
2022-11-10T22:20:41.510Z,100211.34
2022-11-10T22:23:46.760Z,100218.18
2022-11-10T22:26:33.141Z,100217.67
2022-11-10T22:29:20.174Z,100218.69
2022-11-10T22:32:06.569Z,100223.73
2022-11-10T22:34:52.694Z,100225.69
2022-11-10T22:37:39.008Z,100230.01
2022-11-10T22:40:44.282Z,100230.57
2022-11-10T22:43:49.436Z,100234.02
2022-11-10T22:46:38.384Z,100236.95
2022-11-10T22:49:25.062Z,100245.66
2022-11-10T22:52:11.424Z,100246.41
2022-11-10T22:54:58.461Z,100248.98
2022-11-10T22:57:45.018Z,100255.88
2022-11-10T23:00:31.374Z,100262.10
2022-11-10T23:03:17.994Z,100266.08
2022-11-10T23:06:04.967Z,100269.38
2022-11-10T23:08:51.767Z,100273.18
2022-11-10T23:11:38.226Z,100278.17
2022-11-10T23:14:24.663Z,100276.73
2022-11-10T23:17:11.107Z,100277.73
2022-11-10T23:19:57.636Z,100277.64
2022-11-10T23:22:43.920Z,100280.08
2022-11-10T23:25:30.450Z,100281.27
2022-11-10T23:28:16.841Z,100283.45
2022-11-10T23:31:04.276Z,100283.92
2022-11-10T23:33:53.317Z,100291.96
2022-11-10T23:36:39.868Z,100291.16
2022-11-10T23:39:27.087Z,100297.22
2022-11-10T23:42:13.252Z,100295.89
2022-11-10T23:44:59.655Z,100298.66
2022-11-10T23:47:46.002Z,100295.52
2022-11-10T23:50:33.167Z,100295.18
2022-11-10T23:53:19.451Z,100292.95
2022-11-10T23:56:09.378Z,100300.77
2022-11-10T23:58:55.469Z,100295.28
